sensor_id;sensor_type;location;lat;lon;timestamp;P1;durP1;ratioP1;P2;durP2;ratioP2
65552;SDS011;52465;51.560;14.368;2023-02-15T00:01:11;13.90;;;12.15;;
65552;SDS011;52465;51.560;14.368;2023-02-15T00:03:39;14.27;;;11.52;;
65552;SDS011;52465;51.560;14.368;2023-02-15T00:06:05;16.38;;;12.75;;
65552;SDS011;52465;51.560;14.368;2023-02-15T00:08:31;16.98;;;12.65;;
65552;SDS011;52465;51.560;14.368;2023-02-15T00:11:07;18.80;;;12.85;;
65552;SDS011;52465;51.560;14.368;2023-02-15T00:13:34;16.63;;;12.52;;
65552;SDS011;52465;51.560;14.368;2023-02-15T00:16:05;16.20;;;12.52;;
65552;SDS011;52465;51.560;14.368;2023-02-15T00:18:32;17.45;;;12.85;;
65552;SDS011;52465;51.560;14.368;2023-02-15T00:20:58;19.85;;;14.18;;
65552;SDS011;52465;51.560;14.368;2023-02-15T00:23:27;17.98;;;12.82;;
65552;SDS011;52465;51.560;14.368;2023-02-15T00:26:02;17.88;;;12.88;;
65552;SDS011;52465;51.560;14.368;2023-02-15T00:28:52;20.05;;;13.20;;
65552;SDS011;52465;51.560;14.368;2023-02-15T00:31:18;17.63;;;13.18;;
65552;SDS011;52465;51.560;14.368;2023-02-15T00:33:44;18.88;;;13.13;;
65552;SDS011;52465;51.560;14.368;2023-02-15T00:36:11;16.52;;;12.98;;
65552;SDS011;52465;51.560;14.368;2023-02-15T00:38:37;19.17;;;12.82;;
65552;SDS011;52465;51.560;14.368;2023-02-15T00:41:06;17.90;;;13.20;;
65552;SDS011;52465;51.560;14.368;2023-02-15T00:43:32;18.35;;;13.40;;
65552;SDS011;52465;51.560;14.368;2023-02-15T00:45:59;20.27;;;13.20;;
65552;SDS011;52465;51.560;14.368;2023-02-15T00:48:25;19.10;;;13.00;;
65552;SDS011;52465;51.560;14.368;2023-02-15T00:50:52;15.60;;;12.65;;
65552;SDS011;52465;51.560;14.368;2023-02-15T00:53:19;17.15;;;13.20;;
65552;SDS011;52465;51.560;14.368;2023-02-15T00:55:45;16.65;;;12.95;;
65552;SDS011;52465;51.560;14.368;2023-02-15T00:58:11;16.80;;;12.32;;
65552;SDS011;52465;51.560;14.368;2023-02-15T01:00:38;17.35;;;12.90;;
65552;SDS011;52465;51.560;14.368;2023-02-15T01:03:05;16.35;;;12.65;;
65552;SDS011;52465;51.560;14.368;2023-02-15T01:05:31;21.55;;;13.93;;
65552;SDS011;52465;51.560;14.368;2023-02-15T01:07:57;17.42;;;13.48;;
65552;SDS011;52465;51.560;14.368;2023-02-15T01:10:23;21.00;;;13.73;;
65552;SDS011;52465;51.560;14.368;2023-02-15T01:12:49;17.08;;;13.20;;
65552;SDS011;52465;51.560;14.368;2023-02-15T01:15:27;16.80;;;12.85;;
65552;SDS011;52465;51.560;14.368;2023-02-15T01:17:52;14.40;;;11.80;;
65552;SDS011;52465;51.560;14.368;2023-02-15T01:20:24;16.52;;;12.65;;
65552;SDS011;52465;51.560;14.368;2023-02-15T01:22:51;17.48;;;12.75;;
65552;SDS011;52465;51.560;14.368;2023-02-15T01:25:18;18.40;;;13.68;;
65552;SDS011;52465;51.560;14.368;2023-02-15T01:27:45;16.45;;;12.80;;
65552;SDS011;52465;51.560;14.368;2023-02-15T01:30:11;18.50;;;13.13;;
65552;SDS011;52465;51.560;14.368;2023-02-15T01:32:37;20.45;;;13.27;;
65552;SDS011;52465;51.560;14.368;2023-02-15T01:35:02;21.65;;;13.68;;
65552;SDS011;52465;51.560;14.368;2023-02-15T01:37:29;15.75;;;12.63;;
65552;SDS011;52465;51.560;14.368;2023-02-15T01:39:56;16.98;;;13.35;;
65552;SDS011;52465;51.560;14.368;2023-02-15T01:42:22;17.05;;;12.10;;
65552;SDS011;52465;51.560;14.368;2023-02-15T01:44:54;18.67;;;12.70;;
65552;SDS011;52465;51.560;14.368;2023-02-15T01:47:23;17.42;;;12.50;;
65552;SDS011;52465;51.560;14.368;2023-02-15T01:50:08;17.05;;;12.63;;
65552;SDS011;52465;51.560;14.368;2023-02-15T01:52:35;15.52;;;12.18;;
65552;SDS011;52465;51.560;14.368;2023-02-15T01:55:06;17.10;;;12.98;;
65552;SDS011;52465;51.560;14.368;2023-02-15T01:57:33;20.33;;;13.20;;
65552;SDS011;52465;51.560;14.368;2023-02-15T02:00:03;16.55;;;13.35;;
65552;SDS011;52465;51.560;14.368;2023-02-15T02:02:31;16.20;;;12.57;;
65552;SDS011;52465;51.560;14.368;2023-02-15T02:04:58;18.40;;;13.15;;
65552;SDS011;52465;51.560;14.368;2023-02-15T02:07:28;19.13;;;13.15;;
65552;SDS011;52465;51.560;14.368;2023-02-15T02:09:58;16.23;;;13.10;;
65552;SDS011;52465;51.560;14.368;2023-02-15T02:12:25;15.80;;;13.02;;
65552;SDS011;52465;51.560;14.368;2023-02-15T02:14:51;19.55;;;13.43;;
65552;SDS011;52465;51.560;14.368;2023-02-15T02:17:26;18.50;;;13.13;;
65552;SDS011;52465;51.560;14.368;2023-02-15T02:31:37;22.55;;;14.02;;
65552;SDS011;52465;51.560;14.368;2023-02-15T02:39:33;21.83;;;13.77;;
65552;SDS011;52465;51.560;14.368;2023-02-15T02:42:14;20.45;;;13.60;;
65552;SDS011;52465;51.560;14.368;2023-02-15T02:45:00;16.70;;;12.38;;
65552;SDS011;52465;51.560;14.368;2023-02-15T02:47:31;15.95;;;12.05;;
65552;SDS011;52465;51.560;14.368;2023-02-15T02:50:02;18.42;;;13.07;;
65552;SDS011;52465;51.560;14.368;2023-02-15T02:52:56;18.45;;;13.05;;
65552;SDS011;52465;51.560;14.368;2023-02-15T02:55:30;16.63;;;12.98;;
65552;SDS011;52465;51.560;14.368;2023-02-15T02:58:07;20.98;;;13.73;;
65552;SDS011;52465;51.560;14.368;2023-02-15T03:00:40;18.83;;;13.23;;
65552;SDS011;52465;51.560;14.368;2023-02-15T03:03:13;17.42;;;13.75;;
65552;SDS011;52465;51.560;14.368;2023-02-15T03:05:45;23.08;;;14.48;;
65552;SDS011;52465;51.560;14.368;2023-02-15T03:08:14;19.70;;;13.30;;
65552;SDS011;52465;51.560;14.368;2023-02-15T03:10:51;18.17;;;13.60;;
65552;SDS011;52465;51.560;14.368;2023-02-15T03:13:23;20.95;;;13.60;;
65552;SDS011;52465;51.560;14.368;2023-02-15T03:15:50;18.80;;;13.80;;
65552;SDS011;52465;51.560;14.368;2023-02-15T03:18:38;18.70;;;13.30;;
65552;SDS011;52465;51.560;14.368;2023-02-15T03:21:08;18.23;;;12.85;;
65552;SDS011;52465;51.560;14.368;2023-02-15T03:23:46;20.02;;;13.90;;
65552;SDS011;52465;51.560;14.368;2023-02-15T03:26:14;18.70;;;13.25;;
65552;SDS011;52465;51.560;14.368;2023-02-15T03:28:41;19.00;;;13.65;;
65552;SDS011;52465;51.560;14.368;2023-02-15T03:31:10;19.83;;;13.27;;
65552;SDS011;52465;51.560;14.368;2023-02-15T03:33:40;17.45;;;12.65;;
65552;SDS011;52465;51.560;14.368;2023-02-15T03:39:02;19.65;;;13.80;;
65552;SDS011;52465;51.560;14.368;2023-02-15T03:47:36;18.75;;;13.93;;
65552;SDS011;52465;51.560;14.368;2023-02-15T03:50:06;22.70;;;14.13;;
65552;SDS011;52465;51.560;14.368;2023-02-15T03:52:55;19.02;;;13.48;;
65552;SDS011;52465;51.560;14.368;2023-02-15T03:55:23;19.33;;;13.82;;
65552;SDS011;52465;51.560;14.368;2023-02-15T03:57:48;17.10;;;13.38;;
65552;SDS011;52465;51.560;14.368;2023-02-15T04:00:34;22.70;;;14.52;;
65552;SDS011;52465;51.560;14.368;2023-02-15T04:03:22;20.20;;;13.98;;
65552;SDS011;52465;51.560;14.368;2023-02-15T04:06:19;18.80;;;12.98;;
65552;SDS011;52465;51.560;14.368;2023-02-15T04:08:44;18.67;;;13.93;;
65552;SDS011;52465;51.560;14.368;2023-02-15T04:11:31;17.05;;;13.10;;
65552;SDS011;52465;51.560;14.368;2023-02-15T04:13:56;23.15;;;13.68;;
65552;SDS011;52465;51.560;14.368;2023-02-15T04:16:23;25.08;;;14.15;;
65552;SDS011;52465;51.560;14.368;2023-02-15T04:18:49;19.65;;;13.45;;
65552;SDS011;52465;51.560;14.368;2023-02-15T04:21:33;20.23;;;13.25;;
65552;SDS011;52465;51.560;14.368;2023-02-15T04:24:17;19.33;;;13.65;;
65552;SDS011;52465;51.560;14.368;2023-02-15T04:27:03;19.15;;;13.50;;
65552;SDS011;52465;51.560;14.368;2023-02-15T04:29:29;18.08;;;13.18;;
65552;SDS011;52465;51.560;14.368;2023-02-15T04:31:56;17.48;;;13.40;;
65552;SDS011;52465;51.560;14.368;2023-02-15T04:34:24;22.50;;;13.68;;
65552;SDS011;52465;51.560;14.368;2023-02-15T04:36:50;17.98;;;13.73;;
65552;SDS011;52465;51.560;14.368;2023-02-15T04:39:16;17.80;;;13.77;;
65552;SDS011;52465;51.560;14.368;2023-02-15T04:41:43;22.80;;;14.45;;
65552;SDS011;52465;51.560;14.368;2023-02-15T04:44:12;18.02;;;13.95;;
65552;SDS011;52465;51.560;14.368;2023-02-15T04:46:38;20.58;;;13.55;;
65552;SDS011;52465;51.560;14.368;2023-02-15T04:49:03;22.27;;;14.52;;
65552;SDS011;52465;51.560;14.368;2023-02-15T04:51:29;20.83;;;13.07;;
65552;SDS011;52465;51.560;14.368;2023-02-15T04:53:54;18.90;;;13.40;;
65552;SDS011;52465;51.560;14.368;2023-02-15T04:56:21;20.15;;;13.98;;
65552;SDS011;52465;51.560;14.368;2023-02-15T04:58:47;18.40;;;13.25;;
65552;SDS011;52465;51.560;14.368;2023-02-15T05:01:13;19.50;;;14.25;;
65552;SDS011;52465;51.560;14.368;2023-02-15T05:03:39;18.52;;;14.20;;
65552;SDS011;52465;51.560;14.368;2023-02-15T05:06:05;20.10;;;13.95;;
65552;SDS011;52465;51.560;14.368;2023-02-15T05:08:31;20.55;;;14.63;;
65552;SDS011;52465;51.560;14.368;2023-02-15T05:10:56;21.27;;;14.57;;
65552;SDS011;52465;51.560;14.368;2023-02-15T05:13:22;18.75;;;14.40;;
65552;SDS011;52465;51.560;14.368;2023-02-15T05:15:48;22.95;;;15.60;;
65552;SDS011;52465;51.560;14.368;2023-02-15T05:18:16;23.85;;;14.48;;
65552;SDS011;52465;51.560;14.368;2023-02-15T05:20:43;21.48;;;14.18;;
65552;SDS011;52465;51.560;14.368;2023-02-15T05:23:09;24.20;;;14.25;;
65552;SDS011;52465;51.560;14.368;2023-02-15T05:25:35;20.40;;;13.48;;
65552;SDS011;52465;51.560;14.368;2023-02-15T05:28:19;18.83;;;14.00;;
65552;SDS011;52465;51.560;14.368;2023-02-15T05:30:44;22.17;;;14.90;;
65552;SDS011;52465;51.560;14.368;2023-02-15T05:33:10;20.13;;;14.00;;
65552;SDS011;52465;51.560;14.368;2023-02-15T05:35:36;21.23;;;13.90;;
65552;SDS011;52465;51.560;14.368;2023-02-15T05:38:01;21.15;;;13.30;;
65552;SDS011;52465;51.560;14.368;2023-02-15T05:40:27;18.50;;;14.27;;
65552;SDS011;52465;51.560;14.368;2023-02-15T05:42:52;20.90;;;14.45;;
65552;SDS011;52465;51.560;14.368;2023-02-15T05:45:18;19.35;;;14.13;;
65552;SDS011;52465;51.560;14.368;2023-02-15T05:47:46;22.55;;;14.48;;
65552;SDS011;52465;51.560;14.368;2023-02-15T05:50:15;21.30;;;14.15;;
65552;SDS011;52465;51.560;14.368;2023-02-15T05:52:40;18.80;;;13.52;;
65552;SDS011;52465;51.560;14.368;2023-02-15T05:55:06;20.48;;;14.05;;
65552;SDS011;52465;51.560;14.368;2023-02-15T05:57:33;18.20;;;13.20;;
65552;SDS011;52465;51.560;14.368;2023-02-15T05:59:59;19.40;;;14.10;;
65552;SDS011;52465;51.560;14.368;2023-02-15T06:02:25;20.05;;;13.98;;
65552;SDS011;52465;51.560;14.368;2023-02-15T06:04:53;22.90;;;14.75;;
65552;SDS011;52465;51.560;14.368;2023-02-15T06:07:19;20.75;;;13.80;;
65552;SDS011;52465;51.560;14.368;2023-02-15T06:09:44;20.90;;;14.60;;
65552;SDS011;52465;51.560;14.368;2023-02-15T06:12:10;19.50;;;13.73;;
65552;SDS011;52465;51.560;14.368;2023-02-15T06:14:35;25.83;;;15.20;;
65552;SDS011;52465;51.560;14.368;2023-02-15T06:17:00;18.63;;;14.10;;
65552;SDS011;52465;51.560;14.368;2023-02-15T06:19:26;19.65;;;13.85;;
65552;SDS011;52465;51.560;14.368;2023-02-15T06:21:51;24.30;;;14.27;;
65552;SDS011;52465;51.560;14.368;2023-02-15T06:24:16;20.58;;;14.55;;
65552;SDS011;52465;51.560;14.368;2023-02-15T06:26:42;22.45;;;15.32;;
65552;SDS011;52465;51.560;14.368;2023-02-15T06:29:07;20.98;;;14.07;;
65552;SDS011;52465;51.560;14.368;2023-02-15T06:31:33;21.30;;;14.18;;
65552;SDS011;52465;51.560;14.368;2023-02-15T06:33:58;23.40;;;15.45;;
65552;SDS011;52465;51.560;14.368;2023-02-15T06:36:29;19.75;;;14.15;;
65552;SDS011;52465;51.560;14.368;2023-02-15T06:38:55;22.58;;;15.00;;
65552;SDS011;52465;51.560;14.368;2023-02-15T06:41:21;21.98;;;15.07;;
65552;SDS011;52465;51.560;14.368;2023-02-15T06:43:50;21.75;;;14.30;;
65552;SDS011;52465;51.560;14.368;2023-02-15T06:46:16;23.85;;;14.15;;
65552;SDS011;52465;51.560;14.368;2023-02-15T06:48:41;19.23;;;13.95;;
65552;SDS011;52465;51.560;14.368;2023-02-15T06:51:06;24.02;;;13.95;;
65552;SDS011;52465;51.560;14.368;2023-02-15T06:53:35;20.05;;;14.82;;
65552;SDS011;52465;51.560;14.368;2023-02-15T06:56:03;22.25;;;14.40;;
65552;SDS011;52465;51.560;14.368;2023-02-15T06:58:33;22.95;;;14.52;;
65552;SDS011;52465;51.560;14.368;2023-02-15T07:00:58;19.88;;;13.95;;
65552;SDS011;52465;51.560;14.368;2023-02-15T07:03:24;18.83;;;13.68;;
65552;SDS011;52465;51.560;14.368;2023-02-15T07:05:53;19.33;;;13.75;;
65552;SDS011;52465;51.560;14.368;2023-02-15T07:08:21;20.30;;;14.52;;
65552;SDS011;52465;51.560;14.368;2023-02-15T07:10:46;20.35;;;13.77;;
65552;SDS011;52465;51.560;14.368;2023-02-15T07:13:14;19.58;;;14.00;;
65552;SDS011;52465;51.560;14.368;2023-02-15T07:15:39;22.13;;;14.75;;
65552;SDS011;52465;51.560;14.368;2023-02-15T07:18:05;23.08;;;14.45;;
65552;SDS011;52465;51.560;14.368;2023-02-15T07:20:31;22.95;;;14.90;;
65552;SDS011;52465;51.560;14.368;2023-02-15T07:22:58;21.55;;;14.65;;
65552;SDS011;52465;51.560;14.368;2023-02-15T07:25:23;19.52;;;13.93;;
65552;SDS011;52465;51.560;14.368;2023-02-15T07:27:54;24.02;;;14.88;;
65552;SDS011;52465;51.560;14.368;2023-02-15T07:30:22;21.08;;;14.60;;
65552;SDS011;52465;51.560;14.368;2023-02-15T07:32:47;23.23;;;15.27;;
65552;SDS011;52465;51.560;14.368;2023-02-15T07:35:31;22.10;;;14.52;;
65552;SDS011;52465;51.560;14.368;2023-02-15T07:37:57;18.83;;;13.27;;
65552;SDS011;52465;51.560;14.368;2023-02-15T07:40:23;22.02;;;15.27;;
65552;SDS011;52465;51.560;14.368;2023-02-15T07:42:48;20.88;;;14.40;;
65552;SDS011;52465;51.560;14.368;2023-02-15T07:45:17;20.55;;;14.98;;
65552;SDS011;52465;51.560;14.368;2023-02-15T07:47:42;26.02;;;14.90;;
65552;SDS011;52465;51.560;14.368;2023-02-15T07:50:07;21.83;;;14.82;;
65552;SDS011;52465;51.560;14.368;2023-02-15T07:52:33;21.27;;;13.85;;
65552;SDS011;52465;51.560;14.368;2023-02-15T07:54:59;27.23;;;15.35;;
65552;SDS011;52465;51.560;14.368;2023-02-15T07:57:24;23.25;;;15.45;;
65552;SDS011;52465;51.560;14.368;2023-02-15T07:59:49;22.88;;;14.23;;
65552;SDS011;52465;51.560;14.368;2023-02-15T08:02:15;19.92;;;14.10;;
65552;SDS011;52465;51.560;14.368;2023-02-15T08:04:40;21.80;;;14.82;;
65552;SDS011;52465;51.560;14.368;2023-02-15T08:07:06;26.15;;;14.23;;
65552;SDS011;52465;51.560;14.368;2023-02-15T08:09:32;22.05;;;14.30;;
65552;SDS011;52465;51.560;14.368;2023-02-15T08:11:57;19.35;;;14.15;;
65552;SDS011;52465;51.560;14.368;2023-02-15T08:14:23;23.30;;;14.35;;
65552;SDS011;52465;51.560;14.368;2023-02-15T08:16:49;21.55;;;14.50;;
65552;SDS011;52465;51.560;14.368;2023-02-15T08:19:23;20.38;;;14.07;;
65552;SDS011;52465;51.560;14.368;2023-02-15T08:21:52;20.02;;;14.40;;
65552;SDS011;52465;51.560;14.368;2023-02-15T08:24:22;23.08;;;14.45;;
65552;SDS011;52465;51.560;14.368;2023-02-15T08:26:52;20.17;;;14.60;;
65552;SDS011;52465;51.560;14.368;2023-02-15T08:29:22;23.17;;;15.32;;
65552;SDS011;52465;51.560;14.368;2023-02-15T08:31:49;19.30;;;13.93;;
65552;SDS011;52465;51.560;14.368;2023-02-15T08:34:19;23.55;;;14.88;;
65552;SDS011;52465;51.560;14.368;2023-02-15T08:36:45;21.23;;;14.60;;
65552;SDS011;52465;51.560;14.368;2023-02-15T08:39:11;25.70;;;15.05;;
65552;SDS011;52465;51.560;14.368;2023-02-15T08:41:38;18.55;;;13.75;;
65552;SDS011;52465;51.560;14.368;2023-02-15T08:44:05;21.75;;;14.85;;
65552;SDS011;52465;51.560;14.368;2023-02-15T08:46:35;24.23;;;15.40;;
65552;SDS011;52465;51.560;14.368;2023-02-15T08:49:03;22.05;;;15.60;;
65552;SDS011;52465;51.560;14.368;2023-02-15T08:51:31;22.33;;;14.98;;
65552;SDS011;52465;51.560;14.368;2023-02-15T08:53:59;24.27;;;15.38;;
65552;SDS011;52465;51.560;14.368;2023-02-15T08:56:27;25.48;;;15.32;;
65552;SDS011;52465;51.560;14.368;2023-02-15T08:58:55;20.63;;;14.50;;
65552;SDS011;52465;51.560;14.368;2023-02-15T09:01:22;22.25;;;14.45;;
65552;SDS011;52465;51.560;14.368;2023-02-15T09:03:50;23.35;;;16.30;;
65552;SDS011;52465;51.560;14.368;2023-02-15T09:06:19;23.95;;;15.10;;
65552;SDS011;52465;51.560;14.368;2023-02-15T09:08:45;20.92;;;14.70;;
65552;SDS011;52465;51.560;14.368;2023-02-15T09:11:16;23.50;;;15.32;;
65552;SDS011;52465;51.560;14.368;2023-02-15T09:13:51;23.05;;;14.90;;
65552;SDS011;52465;51.560;14.368;2023-02-15T09:18:45;20.75;;;14.55;;
65552;SDS011;52465;51.560;14.368;2023-02-15T09:21:13;21.27;;;14.23;;
65552;SDS011;52465;51.560;14.368;2023-02-15T09:23:41;24.67;;;15.53;;
65552;SDS011;52465;51.560;14.368;2023-02-15T09:26:09;23.98;;;15.18;;
65552;SDS011;52465;51.560;14.368;2023-02-15T09:28:36;24.33;;;15.02;;
65552;SDS011;52465;51.560;14.368;2023-02-15T09:31:09;23.30;;;15.77;;
65552;SDS011;52465;51.560;14.368;2023-02-15T09:33:37;19.92;;;13.77;;
65552;SDS011;52465;51.560;14.368;2023-02-15T09:36:04;17.13;;;12.98;;
65552;SDS011;52465;51.560;14.368;2023-02-15T09:38:31;22.48;;;15.10;;
65552;SDS011;52465;51.560;14.368;2023-02-15T09:41:04;23.58;;;14.65;;
65552;SDS011;52465;51.560;14.368;2023-02-15T09:57:58;17.90;;;12.30;;
65552;SDS011;52465;51.560;14.368;2023-02-15T10:06:36;27.35;;;15.70;;
65552;SDS011;52465;51.560;14.368;2023-02-15T10:09:20;28.45;;;16.77;;
65552;SDS011;52465;51.560;14.368;2023-02-15T10:17:29;21.95;;;13.48;;
65552;SDS011;52465;51.560;14.368;2023-02-15T10:20:23;18.27;;;13.50;;
65552;SDS011;52465;51.560;14.368;2023-02-15T10:23:10;23.25;;;14.65;;
65552;SDS011;52465;51.560;14.368;2023-02-15T10:28:51;18.02;;;13.65;;
65552;SDS011;52465;51.560;14.368;2023-02-15T10:42:15;20.95;;;14.25;;
65552;SDS011;52465;51.560;14.368;2023-02-15T10:51:11;17.17;;;12.85;;
65552;SDS011;52465;51.560;14.368;2023-02-15T10:54:04;18.52;;;13.02;;
65552;SDS011;52465;51.560;14.368;2023-02-15T10:56:55;18.15;;;13.32;;
65552;SDS011;52465;51.560;14.368;2023-02-15T11:00:03;19.48;;;12.90;;
65552;SDS011;52465;51.560;14.368;2023-02-15T11:02:44;20.10;;;13.25;;
65552;SDS011;52465;51.560;14.368;2023-02-15T11:07:59;23.55;;;13.75;;
65552;SDS011;52465;51.560;14.368;2023-02-15T11:10:30;21.13;;;14.52;;
65552;SDS011;52465;51.560;14.368;2023-02-15T11:13:15;20.45;;;12.23;;
65552;SDS011;52465;51.560;14.368;2023-02-15T11:15:47;18.98;;;12.90;;
65552;SDS011;52465;51.560;14.368;2023-02-15T11:18:43;22.50;;;13.50;;
65552;SDS011;52465;51.560;14.368;2023-02-15T11:23:52;20.13;;;13.13;;
65552;SDS011;52465;51.560;14.368;2023-02-15T11:26:26;14.02;;;11.18;;
65552;SDS011;52465;51.560;14.368;2023-02-15T11:28:57;21.73;;;13.32;;
65552;SDS011;52465;51.560;14.368;2023-02-15T11:31:26;22.60;;;14.83;;
65552;SDS011;52465;51.560;14.368;2023-02-15T11:34:27;24.35;;;14.10;;
65552;SDS011;52465;51.560;14.368;2023-02-15T11:37:05;20.75;;;13.20;;
65552;SDS011;52465;51.560;14.368;2023-02-15T11:39:35;17.15;;;13.30;;
65552;SDS011;52465;51.560;14.368;2023-02-15T11:42:14;17.80;;;12.05;;
65552;SDS011;52465;51.560;14.368;2023-02-15T11:45:02;18.90;;;12.68;;
65552;SDS011;52465;51.560;14.368;2023-02-15T11:47:39;17.13;;;12.57;;
65552;SDS011;52465;51.560;14.368;2023-02-15T11:50:05;22.17;;;14.73;;
65552;SDS011;52465;51.560;14.368;2023-02-15T11:52:36;21.02;;;13.27;;
65552;SDS011;52465;51.560;14.368;2023-02-15T11:55:01;18.20;;;11.98;;
65552;SDS011;52465;51.560;14.368;2023-02-15T11:57:28;17.85;;;13.15;;
65552;SDS011;52465;51.560;14.368;2023-02-15T12:00:16;19.80;;;12.90;;
65552;SDS011;52465;51.560;14.368;2023-02-15T12:02:52;20.20;;;12.45;;
65552;SDS011;52465;51.560;14.368;2023-02-15T12:05:21;17.13;;;11.95;;
65552;SDS011;52465;51.560;14.368;2023-02-15T12:08:03;19.05;;;12.10;;
65552;SDS011;52465;51.560;14.368;2023-02-15T12:10:38;21.33;;;12.38;;
65552;SDS011;52465;51.560;14.368;2023-02-15T12:13:09;18.52;;;11.38;;
65552;SDS011;52465;51.560;14.368;2023-02-15T12:15:42;19.70;;;13.35;;
65552;SDS011;52465;51.560;14.368;2023-02-15T12:21:07;18.15;;;12.65;;
65552;SDS011;52465;51.560;14.368;2023-02-15T12:23:39;17.63;;;11.85;;
65552;SDS011;52465;51.560;14.368;2023-02-15T12:26:13;20.58;;;13.02;;
65552;SDS011;52465;51.560;14.368;2023-02-15T12:28:42;17.08;;;11.77;;
65552;SDS011;52465;51.560;14.368;2023-02-15T12:31:26;22.08;;;13.25;;
65552;SDS011;52465;51.560;14.368;2023-02-15T12:33:57;18.88;;;12.80;;
65552;SDS011;52465;51.560;14.368;2023-02-15T12:36:39;19.38;;;13.18;;
65552;SDS011;52465;51.560;14.368;2023-02-15T12:39:28;18.30;;;13.00;;
65552;SDS011;52465;51.560;14.368;2023-02-15T12:42:03;16.92;;;11.93;;
65552;SDS011;52465;51.560;14.368;2023-02-15T12:44:39;20.27;;;11.85;;
65552;SDS011;52465;51.560;14.368;2023-02-15T12:47:37;15.68;;;11.50;;
65552;SDS011;52465;51.560;14.368;2023-02-15T12:50:07;16.27;;;11.35;;
65552;SDS011;52465;51.560;14.368;2023-02-15T12:52:44;13.63;;;11.53;;
65552;SDS011;52465;51.560;14.368;2023-02-15T12:55:23;18.50;;;12.25;;
65552;SDS011;52465;51.560;14.368;2023-02-15T13:00:33;19.90;;;12.68;;
65552;SDS011;52465;51.560;14.368;2023-02-15T13:02:59;19.50;;;12.95;;
65552;SDS011;52465;51.560;14.368;2023-02-15T13:08:00;16.15;;;11.52;;
65552;SDS011;52465;51.560;14.368;2023-02-15T13:10:54;19.60;;;12.32;;
65552;SDS011;52465;51.560;14.368;2023-02-15T13:13:23;14.88;;;10.88;;
65552;SDS011;52465;51.560;14.368;2023-02-15T13:15:52;17.02;;;11.20;;
65552;SDS011;52465;51.560;14.368;2023-02-15T13:18:27;19.23;;;11.73;;
65552;SDS011;52465;51.560;14.368;2023-02-15T13:21:20;18.48;;;12.25;;
65552;SDS011;52465;51.560;14.368;2023-02-15T13:26:48;15.60;;;11.85;;
65552;SDS011;52465;51.560;14.368;2023-02-15T13:29:19;17.00;;;11.48;;
65552;SDS011;52465;51.560;14.368;2023-02-15T13:32:20;20.38;;;12.90;;
65552;SDS011;52465;51.560;14.368;2023-02-15T13:35:15;14.38;;;10.90;;
65552;SDS011;52465;51.560;14.368;2023-02-15T13:40:29;14.80;;;11.45;;
65552;SDS011;52465;51.560;14.368;2023-02-15T13:51:26;20.92;;;13.18;;
65552;SDS011;52465;51.560;14.368;2023-02-15T13:57:03;19.50;;;12.60;;
65552;SDS011;52465;51.560;14.368;2023-02-15T14:03:02;20.27;;;12.65;;
65552;SDS011;52465;51.560;14.368;2023-02-15T14:17:00;17.23;;;12.95;;
65552;SDS011;52465;51.560;14.368;2023-02-15T14:19:37;17.52;;;12.30;;
65552;SDS011;52465;51.560;14.368;2023-02-15T14:22:39;17.23;;;11.93;;
65552;SDS011;52465;51.560;14.368;2023-02-15T14:25:14;19.23;;;12.73;;
65552;SDS011;52465;51.560;14.368;2023-02-15T14:30:20;19.65;;;12.45;;
65552;SDS011;52465;51.560;14.368;2023-02-15T14:32:56;22.33;;;13.70;;
65552;SDS011;52465;51.560;14.368;2023-02-15T14:35:29;24.85;;;15.15;;
65552;SDS011;52465;51.560;14.368;2023-02-15T14:40:54;19.92;;;13.23;;
65552;SDS011;52465;51.560;14.368;2023-02-15T14:43:46;18.88;;;12.90;;
65552;SDS011;52465;51.560;14.368;2023-02-15T14:46:21;20.58;;;12.75;;
65552;SDS011;52465;51.560;14.368;2023-02-15T14:49:16;17.02;;;12.18;;
65552;SDS011;52465;51.560;14.368;2023-02-15T14:57:19;23.33;;;14.70;;
65552;SDS011;52465;51.560;14.368;2023-02-15T15:01:57;22.60;;;13.80;;
65552;SDS011;52465;51.560;14.368;2023-02-15T15:04:29;24.65;;;14.85;;
65552;SDS011;52465;51.560;14.368;2023-02-15T15:07:08;21.23;;;14.50;;
65552;SDS011;52465;51.560;14.368;2023-02-15T15:09:46;24.00;;;14.88;;
65552;SDS011;52465;51.560;14.368;2023-02-15T15:12:47;22.80;;;14.32;;
65552;SDS011;52465;51.560;14.368;2023-02-15T15:17:53;21.73;;;13.40;;
65552;SDS011;52465;51.560;14.368;2023-02-15T15:25:58;17.23;;;12.00;;
65552;SDS011;52465;51.560;14.368;2023-02-15T15:31:02;17.52;;;12.93;;
65552;SDS011;52465;51.560;14.368;2023-02-15T15:45:30;20.02;;;13.35;;
65552;SDS011;52465;51.560;14.368;2023-02-15T15:48:17;19.73;;;12.48;;
65552;SDS011;52465;51.560;14.368;2023-02-15T15:53:56;20.17;;;12.38;;
65552;SDS011;52465;51.560;14.368;2023-02-15T15:59:22;18.55;;;11.85;;
65552;SDS011;52465;51.560;14.368;2023-02-15T16:01:50;16.98;;;11.70;;
65552;SDS011;52465;51.560;14.368;2023-02-15T16:04:26;16.98;;;11.90;;
65552;SDS011;52465;51.560;14.368;2023-02-15T16:06:57;15.15;;;11.13;;
65552;SDS011;52465;51.560;14.368;2023-02-15T16:09:25;14.68;;;11.20;;
65552;SDS011;52465;51.560;14.368;2023-02-15T16:11:58;14.82;;;11.63;;
65552;SDS011;52465;51.560;14.368;2023-02-15T16:17:00;15.63;;;12.00;;
65552;SDS011;52465;51.560;14.368;2023-02-15T16:19:35;16.98;;;12.35;;
65552;SDS011;52465;51.560;14.368;2023-02-15T16:22:27;18.67;;;12.77;;
65552;SDS011;52465;51.560;14.368;2023-02-15T16:27:40;19.10;;;12.20;;
65552;SDS011;52465;51.560;14.368;2023-02-15T16:30:17;21.20;;;13.55;;
65552;SDS011;52465;51.560;14.368;2023-02-15T16:32:45;17.52;;;11.73;;
65552;SDS011;52465;51.560;14.368;2023-02-15T16:35:15;19.02;;;12.80;;
65552;SDS011;52465;51.560;14.368;2023-02-15T16:37:42;20.20;;;13.10;;
65552;SDS011;52465;51.560;14.368;2023-02-15T16:40:29;16.73;;;11.52;;
65552;SDS011;52465;51.560;14.368;2023-02-15T16:43:18;17.55;;;11.32;;
65552;SDS011;52465;51.560;14.368;2023-02-15T16:45:49;16.20;;;11.95;;
65552;SDS011;52465;51.560;14.368;2023-02-15T16:48:23;20.13;;;12.35;;
65552;SDS011;52465;51.560;14.368;2023-02-15T16:51:22;18.13;;;12.27;;
65552;SDS011;52465;51.560;14.368;2023-02-15T16:53:52;17.98;;;11.60;;
65552;SDS011;52465;51.560;14.368;2023-02-15T16:56:24;17.35;;;11.68;;
65552;SDS011;52465;51.560;14.368;2023-02-15T16:58:55;16.42;;;11.07;;
65552;SDS011;52465;51.560;14.368;2023-02-15T17:01:23;16.95;;;11.60;;
65552;SDS011;52465;51.560;14.368;2023-02-15T17:03:52;16.40;;;11.95;;
65552;SDS011;52465;51.560;14.368;2023-02-15T17:06:58;15.60;;;11.98;;
65552;SDS011;52465;51.560;14.368;2023-02-15T17:09:50;18.20;;;12.73;;
65552;SDS011;52465;51.560;14.368;2023-02-15T17:12:43;20.85;;;12.90;;
65552;SDS011;52465;51.560;14.368;2023-02-15T17:15:29;15.60;;;11.13;;
65552;SDS011;52465;51.560;14.368;2023-02-15T17:18:17;15.68;;;11.48;;
65552;SDS011;52465;51.560;14.368;2023-02-15T17:20:44;19.17;;;12.32;;
65552;SDS011;52465;51.560;14.368;2023-02-15T17:23:31;20.45;;;12.10;;